Time;durP1;ratioP1;P1;durP2;ratioP2;P2;SDS_P1;SDS_P2;PMS_P1;PMS_P2;Temp;Humidity;BMP_temperature;BMP_pressure;BME280_temperature;BME280_humidity;BME280_pressure;Samples;Min_cycle;Max_cycle;Signal;HPM_P1;HPM_P2
2022/07/26 00:00:50;;;;;;;6.85;1.92;;;21.90;87.90;;;19.66;76.76;100297.47;5012377;28;20049;-86
2022/07/26 00:03:17;;;;;;;6.35;1.70;;;21.90;88.40;;;19.65;76.93;100299.41;4998260;28;20477;-87
2022/07/26 00:05:45;;;;;;;8.48;1.50;;;21.90;88.40;;;19.53;77.31;100299.50;5014151;28;20049;-87
2022/07/26 00:08:12;;;;;;;6.75;1.98;;;21.90;88.50;;;19.49;77.20;100298.28;5002297;28;20505;-87
2022/07/26 00:10:47;;;;;;;7.55;1.67;;;21.90;88.50;;;19.44;77.56;100297.38;5004283;28;20070;-87
2022/07/26 00:13:16;;;;;;;7.63;1.83;;;21.90;88.60;;;19.42;77.76;100297.63;5011786;28;20512;-87
2022/07/26 00:15:44;;;;;;;5.63;1.83;;;21.80;88.60;;;19.37;78.28;100299.47;5012121;28;20137;-87
2022/07/26 00:18:11;;;;;;;9.13;1.83;;;21.80;88.60;;;19.28;78.81;100301.78;4999382;28;20041;-87
2022/07/26 00:20:38;;;;;;;8.15;2.05;;;21.80;88.80;;;19.17;79.17;100305.44;5021955;28;20125;-86
2022/07/26 00:23:06;;;;;;;6.03;1.67;;;21.80;88.80;;;19.18;79.50;100296.09;5021515;28;20085;-87
2022/07/26 00:25:33;;;;;;;11.02;1.60;;;21.80;89.00;;;19.07;79.65;100295.03;5011850;28;20052;-87
2022/07/26 00:28:02;;;;;;;7.80;1.65;;;21.70;89.10;;;19.00;79.82;100288.81;5010677;28;20042;-87
2022/07/26 00:30:29;;;;;;;8.50;1.58;;;21.70;89.00;;;18.95;80.38;100293.16;5004724;28;20054;-87
2022/07/26 00:32:57;;;;;;;14.13;2.22;;;21.70;89.40;;;18.89;81.12;100291.41;5009237;28;20535;-87
2022/07/26 00:35:24;;;;;;;8.52;2.00;;;21.60;89.50;;;18.88;81.28;100291.63;5011897;28;20078;-87
2022/07/26 00:37:52;;;;;;;6.40;1.73;;;21.60;89.70;;;18.78;81.96;100291.41;5010397;28;20109;-88
2022/07/26 00:40:19;;;;;;;6.57;1.70;;;21.60;89.90;;;18.74;82.39;100291.06;4992495;28;20052;-88
2022/07/26 00:42:46;;;;;;;4.70;1.63;;;21.60;90.00;;;18.63;82.89;100291.94;5003302;28;20065;-87
2022/07/26 00:45:16;;;;;;;7.35;1.50;;;21.50;90.00;;;18.64;82.88;100290.81;5007499;28;20038;-87
2022/07/26 00:47:44;;;;;;;7.45;1.88;;;21.50;90.10;;;18.61;83.21;100289.41;5006947;28;20487;-87
2022/07/26 00:50:14;;;;;;;7.25;1.92;;;21.40;90.40;;;18.58;83.81;100291.81;5008449;28;20153;-87
2022/07/26 00:52:42;;;;;;;6.38;1.80;;;21.40;90.60;;;18.54;83.85;100296.97;5010394;28;20065;-86
2022/07/26 00:55:10;;;;;;;5.65;1.50;;;21.40;90.80;;;18.37;84.77;100291.34;5009487;28;20489;-87
2022/07/26 00:57:39;;;;;;;5.55;1.80;;;21.30;91.10;;;18.35;85.14;100294.38;5024567;28;20517;-87
2022/07/26 01:00:09;;;;;;;5.05;1.80;;;21.30;91.20;;;18.28;85.92;100293.66;5007335;28;20510;-87
2022/07/26 01:02:39;;;;;;;7.60;1.90;;;21.20;91.40;;;18.24;86.05;100297.97;5005015;28;20117;-87
2022/07/26 01:05:07;;;;;;;7.35;2.22;;;21.20;91.60;;;18.26;85.88;100294.97;5001888;28;20117;-86
2022/07/26 01:07:36;;;;;;;6.97;2.40;;;21.20;91.60;;;18.29;85.96;100288.97;5005526;28;20108;-87
2022/07/26 01:10:04;;;;;;;8.32;2.25;;;21.20;91.80;;;18.26;86.34;100289.44;5000160;28;20039;-87
2022/07/26 01:12:32;;;;;;;8.73;2.05;;;21.20;92.10;;;18.22;86.74;100291.88;4991946;28;20508;-87
2022/07/26 01:14:59;;;;;;;6.95;2.03;;;21.10;92.00;;;18.23;87.02;100290.78;5010101;28;20069;-87
2022/07/26 01:17:26;;;;;;;6.13;2.50;;;21.10;92.40;;;18.25;86.81;100291.38;5010961;28;20052;-87
2022/07/26 01:19:55;;;;;;;5.88;2.22;;;21.10;92.60;;;18.28;87.50;100288.16;5008892;28;20100;-87
2022/07/26 01:22:23;;;;;;;8.60;2.40;;;21.10;92.70;;;18.41;86.93;100294.47;5003329;28;20041;-87
2022/07/26 01:24:51;;;;;;;8.70;2.35;;;21.10;92.80;;;18.51;86.41;100294.72;5010796;28;20136;-87
2022/07/26 01:27:18;;;;;;;5.55;2.10;;;21.10;92.80;;;18.52;86.02;100290.84;5008444;28;20114;-87
2022/07/26 01:29:45;;;;;;;7.15;2.00;;;21.10;92.60;;;18.56;86.10;100286.53;5015636;28;20115;-88
2022/07/26 01:32:13;;;;;;;7.95;2.05;;;21.10;92.70;;;18.60;85.93;100285.00;5010075;28;20046;-87
2022/07/26 01:34:40;;;;;;;8.57;2.30;;;21.10;92.60;;;18.64;85.82;100285.31;5003110;28;20042;-87
2022/07/26 01:37:08;;;;;;;7.07;2.00;;;21.10;92.70;;;18.64;86.10;100286.19;5009291;28;20540;-87
2022/07/26 01:39:36;;;;;;;6.13;1.98;;;21.10;92.70;;;18.60;85.86;100293.25;5003238;28;20121;-87
2022/07/26 01:42:05;;;;;;;7.57;2.30;;;21.10;92.70;;;18.59;86.22;100287.97;5008861;28;20042;-86
2022/07/26 01:44:32;;;;;;;7.45;1.88;;;21.10;92.70;;;18.60;86.32;100296.00;5001896;28;20046;-87
2022/07/26 01:46:59;;;;;;;8.05;2.10;;;21.00;92.80;;;18.65;87.01;100292.50;4991344;28;20120;-87
2022/07/26 01:49:27;;;;;;;7.15;2.03;;;21.20;93.10;;;18.60;86.38;100290.50;5006837;28;20549;-87
2022/07/26 01:51:54;;;;;;;3.88;1.70;;;21.10;93.00;;;18.62;86.70;100293.00;5002031;28;20038;-86
2022/07/26 01:54:21;;;;;;;8.50;2.40;;;21.10;93.00;;;18.65;86.75;100289.75;5010407;28;20045;-87
2022/07/26 01:56:50;;;;;;;6.28;1.95;;;21.10;93.10;;;18.65;86.43;100290.59;5009521;28;20046;-88
2022/07/26 01:59:17;;;;;;;7.43;2.25;;;21.10;92.90;;;18.66;86.44;100284.00;5002470;28;20118;-87
2022/07/26 02:01:44;;;;;;;5.97;2.25;;;21.10;93.30;;;18.66;87.33;100289.53;5003802;28;20124;-87
2022/07/26 02:04:57;;;;;;;8.93;2.42;;;21.10;93.60;;;18.69;86.88;100288.19;5018017;28;20049;-88
2022/07/26 02:06:58;;;;;;;10.27;2.33;;;21.10;93.50;;;18.70;87.57;100295.38;5010010;28;20050;-87
2022/07/26 02:09:26;;;;;;;7.05;2.00;;;21.10;93.80;;;18.72;86.48;100296.81;4991730;28;20755;-87
2022/07/26 02:11:54;;;;;;;9.07;2.13;;;21.10;93.40;;;18.70;86.74;100290.72;5000866;28;20088;-87
2022/07/26 02:14:21;;;;;;;7.88;1.83;;;21.20;93.50;;;18.75;86.97;100304.59;5010113;28;20052;-87
2022/07/26 02:16:49;;;;;;;6.22;1.73;;;21.10;93.60;;;18.75;86.91;100299.09;5010143;28;20045;-87
2022/07/26 02:19:17;;;;;;;7.68;2.03;;;21.20;93.80;;;18.75;87.46;100299.09;5007597;28;20033;-87
2022/07/26 02:21:44;;;;;;;7.45;2.00;;;21.20;93.90;;;18.73;87.44;100300.41;5016926;28;20046;-86
2022/07/26 02:24:11;;;;;;;5.95;1.80;;;21.20;93.90;;;18.75;87.29;100301.84;5009994;28;20136;-86
2022/07/26 02:26:38;;;;;;;6.90;1.80;;;21.10;93.80;;;18.82;86.66;100298.13;5010102;28;20057;-86
2022/07/26 02:29:07;;;;;;;7.10;1.80;;;21.10;93.90;;;18.80;86.68;100294.75;5009182;28;20077;-85
2022/07/26 02:31:35;;;;;;;5.75;1.85;;;21.10;94.00;;;18.72;87.62;100294.06;4999921;28;20038;-85
2022/07/26 02:34:02;;;;;;;8.48;1.77;;;21.10;94.10;;;18.72;87.36;100298.75;4996559;28;20077;-85
2022/07/26 02:36:29;;;;;;;9.40;1.85;;;21.10;93.80;;;18.71;87.48;100303.38;5016194;28;20052;-85
2022/07/26 02:38:56;;;;;;;6.78;1.73;;;21.10;93.90;;;18.69;87.07;100294.53;4999826;28;20121;-85
2022/07/26 02:41:24;;;;;;;4.72;1.60;;;21.10;94.00;;;18.67;87.29;100298.63;5009589;28;20048;-85
2022/07/26 02:43:53;;;;;;;5.07;1.48;;;21.10;93.90;;;18.70;87.27;100295.38;5007540;28;20164;-86
2022/07/26 02:46:25;;;;;;;6.88;1.80;;;21.10;94.20;;;18.71;87.36;100295.13;4995170;28;20037;-85
2022/07/26 02:48:52;;;;;;;7.65;1.73;;;21.10;94.10;;;18.71;87.14;100300.63;5009048;28;20506;-85
2022/07/26 02:51:19;;;;;;;8.95;2.10;;;21.10;94.00;;;18.71;87.23;100292.38;5007922;28;20042;-85
2022/07/26 02:53:46;;;;;;;7.90;2.10;;;21.10;94.00;;;18.72;86.64;100298.75;4991988;28;20064;-85
2022/07/26 02:56:13;;;;;;;7.28;1.80;;;21.10;93.90;;;18.65;87.41;100304.38;5008853;28;20038;-85
2022/07/26 02:58:41;;;;;;;7.72;1.77;;;21.10;94.00;;;18.64;87.39;100299.97;5000765;28;20042;-85
2022/07/26 03:01:08;;;;;;;4.88;1.70;;;21.10;94.00;;;18.62;87.95;100309.53;5009606;28;20224;-85
2022/07/26 03:03:37;;;;;;;8.23;2.03;;;21.10;94.20;;;18.66;88.55;100305.22;5009723;28;20080;-85
2022/07/26 03:06:05;;;;;;;7.70;1.98;;;21.10;94.60;;;18.71;88.08;100310.84;4999808;28;20546;-85
2022/07/26 03:08:32;;;;;;;7.03;1.83;;;21.10;94.40;;;18.67;88.65;100313.22;4993064;28;20077;-85
2022/07/26 03:10:59;;;;;;;9.32;2.05;;;21.10;94.70;;;18.74;87.70;100313.94;5016627;28;20065;-85
2022/07/26 03:13:27;;;;;;;7.50;1.80;;;21.00;94.30;;;18.70;88.40;100312.75;5000493;28;20042;-85
2022/07/26 03:15:54;;;;;;;7.95;2.20;;;21.00;94.80;;;18.68;89.04;100320.44;5008201;28;20050;-86
2022/07/26 03:18:21;;;;;;;13.38;2.38;;;21.00;94.90;;;18.69;88.74;100319.34;5000413;28;20799;-85
2022/07/26 03:20:50;;;;;;;6.63;2.08;;;21.00;95.00;;;18.75;88.29;100321.16;5001175;28;20042;-85
2022/07/26 03:23:17;;;;;;;7.60;2.30;;;21.00;94.90;;;18.68;88.90;100320.44;4995365;28;20045;-85
2022/07/26 03:25:45;;;;;;;7.90;2.05;;;21.00;95.00;;;18.63;89.72;100323.06;5006528;28;20128;-85
2022/07/26 03:28:12;;;;;;;9.82;2.45;;;21.00;95.40;;;18.62;89.54;100321.41;5018498;28;20045;-85
2022/07/26 03:30:39;;;;;;;11.07;2.50;;;21.00;95.30;;;18.69;89.25;100315.75;5012920;28;20557;-85
2022/07/26 03:33:06;;;;;;;8.90;2.38;;;21.00;95.20;;;18.69;89.40;100322.09;5003159;28;20042;-85
2022/07/26 03:35:33;;;;;;;8.73;2.13;;;21.00;95.40;;;18.63;89.54;100327.75;5012949;28;20046;-85
2022/07/26 03:38:02;;;;;;;10.85;2.90;;;21.00;95.40;;;18.60;90.24;100334.59;5003849;28;20034;-85
2022/07/26 03:40:29;;;;;;;7.72;2.13;;;21.00;95.50;;;18.63;90.09;100331.34;5011879;28;20038;-85
2022/07/26 03:42:56;;;;;;;8.82;2.17;;;21.00;95.50;;;18.61;90.00;100336.25;5010886;28;20658;-85
2022/07/26 03:45:24;;;;;;;10.63;2.30;;;21.00;95.50;;;18.62;90.08;100337.97;5024715;28;20033;-85
2022/07/26 03:47:52;;;;;;;8.45;2.30;;;21.00;95.70;;;18.63;90.03;100333.28;5015964;28;20038;-85
2022/07/26 03:50:19;;;;;;;7.85;2.10;;;21.00;95.60;;;18.62;90.29;100337.09;4993866;28;20042;-85
2022/07/26 03:52:46;;;;;;;12.93;2.47;;;21.00;95.80;;;18.59;91.17;100343.09;5012525;28;20076;-85
2022/07/26 03:57:59;;;;;;;10.48;2.42;;;21.00;96.40;;;18.51;93.49;100352.59;5012438;28;20056;-85
2022/07/26 04:00:27;;;;;;;8.45;2.33;;;21.00;97.10;;;18.46;94.51;100344.19;5009926;28;20664;-86
2022/07/26 04:02:54;;;;;;;6.63;2.30;;;21.00;97.70;;;18.43;96.08;100355.69;5012286;28;20561;-85
2022/07/26 04:05:21;;;;;;;10.15;2.85;;;20.90;98.20;;;18.38;97.53;100352.84;5012541;28;20048;-85
2022/07/26 04:07:49;;;;;;;9.80;3.05;;;20.90;99.00;;;18.30;99.10;100351.28;5003337;28;20069;-85
2022/07/26 04:10:17;;;;;;;8.02;2.38;;;20.90;99.40;;;18.29;98.32;100355.94;5011210;28;20045;-85
2022/07/26 04:12:45;;;;;;;9.90;2.42;;;20.90;99.40;;;18.23;98.32;100367.09;5005550;28;20105;-85
2022/07/26 04:15:12;;;;;;;11.50;2.60;;;20.80;99.10;;;18.24;98.86;100361.34;4998913;28;20133;-85
2022/07/26 04:17:40;;;;;;;8.85;2.20;;;20.80;99.40;;;18.25;98.37;100368.50;5009355;28;20105;-86
2022/07/26 04:20:10;;;;;;;9.88;2.40;;;20.80;99.30;;;18.26;98.46;100378.47;5020011;28;20045;-85
2022/07/26 04:22:39;;;;;;;8.20;2.47;;;20.80;99.50;;;18.26;98.54;100370.19;5031779;28;20140;-85
2022/07/26 04:25:09;;;;;;;8.65;2.72;;;20.70;99.40;;;18.27;98.83;100374.63;5031659;28;20486;-85
2022/07/26 04:27:38;;;;;;;8.65;2.50;;;20.80;99.60;;;18.26;99.27;100372.97;5031772;28;20043;-86
2022/07/26 04:30:07;;;;;;;11.77;2.40;;;20.80;99.60;;;18.23;99.23;100375.34;5021887;28;20502;-85
2022/07/26 04:32:34;;;;;;;10.02;2.40;;;20.80;99.60;;;18.12;100.00;100377.00;5006097;28;20260;-85
2022/07/26 04:35:01;;;;;;;6.45;2.28;;;20.70;99.90;;;18.11;100.00;100381.69;5002993;28;20070;-86
2022/07/26 04:37:31;;;;;;;9.23;2.78;;;20.80;99.90;;;18.00;100.00;100377.00;5015832;28;20043;-86
2022/07/26 04:39:58;;;;;;;8.65;2.55;;;20.70;99.90;;;18.08;100.00;100371.13;5012992;28;20104;-86
2022/07/26 04:42:31;;;;;;;10.68;2.80;;;20.70;99.90;;;18.12;100.00;100371.50;5005930;28;20073;-86
2022/07/26 04:44:59;;;;;;;12.98;2.80;;;20.70;99.90;;;18.10;100.00;100374.47;5018474;28;20049;-86
2022/07/26 04:47:27;;;;;;;9.73;2.30;;;20.70;99.90;;;18.08;100.00;100373.06;5011663;28;20050;-86
2022/07/26 04:50:00;;;;;;;7.07;2.70;;;20.60;99.90;;;18.03;100.00;100371.03;4992872;28;20045;-86
2022/07/26 04:52:28;;;;;;;10.20;2.83;;;20.60;99.90;;;18.03;100.00;100372.91;5013521;28;20405;-86
2022/07/26 04:54:55;;;;;;;9.55;2.58;;;20.60;99.90;;;17.97;100.00;100370.06;5021191;28;20132;-86
2022/07/26 04:57:22;;;;;;;10.77;3.08;;;20.60;99.90;;;17.88;100.00;100376.97;5004018;28;20088;-86
2022/07/26 04:59:49;;;;;;;9.35;2.38;;;20.60;99.90;;;17.89;100.00;100380.56;5010450;28;20041;-86
2022/07/26 05:02:18;;;;;;;8.32;2.50;;;20.60;99.90;;;17.90;100.00;100385.84;5001819;28;20410;-85
2022/07/26 05:04:45;;;;;;;9.18;2.88;;;20.60;99.90;;;17.87;100.00;100379.97;4999274;28;20129;-86
2022/07/26 05:07:12;;;;;;;7.20;2.60;;;20.60;99.90;;;17.84;100.00;100381.28;5001586;28;20100;-86
2022/07/26 05:09:39;;;;;;;10.45;2.50;;;20.50;99.90;;;17.79;100.00;100381.13;5011342;28;20047;-85
2022/07/26 05:12:08;;;;;;;11.65;2.55;;;20.50;99.90;;;17.83;100.00;100379.56;5018080;28;20141;-86
2022/07/26 05:14:36;;;;;;;12.40;2.80;;;20.50;99.90;;;17.88;100.00;100385.25;5002919;28;20050;-86
2022/07/26 05:17:04;;;;;;;14.30;3.25;;;20.50;99.90;;;17.87;100.00;100380.81;5010997;28;20057;-86
2022/07/26 05:19:32;;;;;;;12.52;3.00;;;20.50;99.90;;;17.86;100.00;100383.78;4996166;28;20073;-86
2022/07/26 05:22:00;;;;;;;9.25;2.45;;;20.50;99.90;;;17.85;100.00;100388.47;5010733;28;20046;-86
2022/07/26 05:24:27;;;;;;;10.13;2.67;;;20.50;99.90;;;17.92;100.00;100383.69;5008954;28;20056;-86
2022/07/26 05:26:54;;;;;;;8.05;2.30;;;20.50;99.90;;;17.94;100.00;100383.47;5010658;28;20164;-85
2022/07/26 05:29:21;;;;;;;11.60;2.53;;;20.50;99.90;;;17.97;100.00;100386.59;5008834;28;20052;-85
2022/07/26 05:31:49;;;;;;;7.72;2.60;;;20.50;99.90;;;18.04;100.00;100386.47;5009318;28;20046;-85
2022/07/26 05:34:16;;;;;;;9.32;3.17;;;20.50;99.90;;;18.05;100.00;100382.66;5009314;28;20524;-85
2022/07/26 05:36:44;;;;;;;8.13;2.83;;;20.50;99.90;;;18.06;100.00;100378.78;5010706;28;20101;-85
2022/07/26 05:39:12;;;;;;;10.70;2.90;;;20.50;99.90;;;18.14;100.00;100385.88;5008635;28;20133;-86
2022/07/26 05:41:39;;;;;;;10.60;2.78;;;20.50;99.90;;;18.21;100.00;100378.34;5016633;28;20073;-85
2022/07/26 05:44:06;;;;;;;8.32;2.50;;;20.50;99.90;;;18.23;100.00;100378.94;5001297;28;20052;-85
2022/07/26 05:46:33;;;;;;;8.70;2.55;;;20.50;99.90;;;18.30;100.00;100378.84;5010673;28;20045;-81
2022/07/26 05:49:00;;;;;;;11.32;2.72;;;20.50;99.90;;;18.34;100.00;100385.53;5009549;28;20077;-84
2022/07/26 05:51:29;;;;;;;11.15;3.03;;;20.60;99.90;;;18.32;100.00;100383.00;5002737;28;20096;-83
2022/07/26 05:53:57;;;;;;;7.95;2.60;;;20.60;99.90;;;18.45;100.00;100378.31;5007569;28;20458;-84
2022/07/26 05:56:25;;;;;;;12.75;3.38;;;20.60;99.90;;;18.55;100.00;100386.84;5005947;28;20048;-85
2022/07/26 05:58:52;;;;;;;10.48;2.58;;;20.60;99.90;;;18.65;100.00;100380.72;5012241;28;20042;-84
2022/07/26 06:01:19;;;;;;;13.45;3.10;;;20.60;99.90;;;18.76;100.00;100380.69;5002403;28;20044;-85
2022/07/26 06:03:46;;;;;;;14.20;4.05;;;20.70;99.90;;;18.84;100.00;100387.78;4996938;28;20132;-84
2022/07/26 06:06:13;;;;;;;13.65;3.28;;;20.70;99.90;;;18.91;100.00;100398.72;5010039;28;20129;-84
2022/07/26 06:08:41;;;;;;;15.93;3.63;;;20.80;99.90;;;18.90;100.00;100397.03;5009436;28;20049;-84
2022/07/26 06:11:09;;;;;;;12.55;3.30;;;20.70;99.90;;;18.88;100.00;100396.41;5009965;28;20060;-84
2022/07/26 06:13:37;;;;;;;12.32;3.33;;;20.80;99.90;;;18.90;100.00;100395.09;5007311;28;20077;-86
2022/07/26 06:16:05;;;;;;;14.93;3.25;;;20.80;99.90;;;19.01;100.00;100389.81;5017847;28;20132;-85
2022/07/26 06:18:33;;;;;;;10.73;3.75;;;20.80;99.90;;;19.14;100.00;100395.88;5009347;28;20042;-84
2022/07/26 06:21:00;;;;;;;17.95;3.67;;;20.80;99.90;;;19.30;100.00;100382.38;5010042;28;20045;-85
2022/07/26 06:23:27;;;;;;;20.15;4.38;;;20.90;99.90;;;19.42;100.00;100396.13;5009939;28;20121;-84
2022/07/26 06:25:54;;;;;;;12.27;4.35;;;20.90;99.90;;;19.58;100.00;100398.13;5008620;28;20046;-85
2022/07/26 06:28:24;;;;;;;14.93;4.28;;;20.90;99.90;;;19.74;100.00;100399.25;5001929;28;20118;-84
2022/07/26 06:30:51;;;;;;;14.32;4.35;;;21.00;99.90;;;19.80;100.00;100398.28;5007201;28;20042;-84
2022/07/26 06:33:18;;;;;;;12.45;4.13;;;21.10;99.90;;;19.83;100.00;100403.28;5010946;28;20065;-84
2022/07/26 06:35:45;;;;;;;18.95;4.68;;;21.10;99.90;;;19.94;99.25;100409.03;5008898;28;20129;-79
2022/07/26 06:38:12;;;;;;;13.80;4.35;;;21.20;99.90;;;19.90;100.00;100405.91;5008710;28;20056;-79
2022/07/26 06:40:40;;;;;;;12.60;4.10;;;21.20;99.90;;;20.07;97.97;100403.16;5001338;28;20054;-78
2022/07/26 06:43:07;;;;;;;10.60;4.38;;;21.20;99.90;;;20.33;99.35;100407.16;5004977;28;20053;-79
2022/07/26 06:45:35;;;;;;;13.35;4.40;;;21.30;99.90;;;20.57;97.68;100404.22;4998450;28;20129;-81
2022/07/26 06:48:03;;;;;;;14.23;5.10;;;21.30;99.90;;;20.79;96.31;100404.28;5019285;28;20068;-82
2022/07/26 06:50:30;;;;;;;14.07;4.68;;;21.40;99.90;;;21.01;95.80;100407.06;5008294;28;20038;-82
2022/07/26 06:52:57;;;;;;;13.07;4.07;;;21.40;99.90;;;21.21;94.76;100417.56;5006303;28;20050;-82
2022/07/26 06:55:24;;;;;;;14.95;4.25;;;21.60;99.90;;;21.27;92.19;100416.53;5004332;28;20048;-79
2022/07/26 06:57:52;;;;;;;12.75;4.20;;;21.60;99.90;;;21.34;91.91;100419.94;5011342;28;20497;-81
2022/07/26 07:00:19;;;;;;;13.38;4.35;;;21.70;99.90;;;21.46;90.52;100419.84;5006794;28;20030;-83
2022/07/26 07:02:48;;;;;;;13.35;4.15;;;21.70;99.90;;;21.61;91.26;100419.16;4998011;28;20779;-83
2022/07/26 07:05:15;;;;;;;14.25;4.95;;;21.80;99.90;;;21.55;88.18;100422.97;5018800;28;20074;-82
2022/07/26 07:07:43;;;;;;;14.95;4.82;;;21.90;99.90;;;21.43;88.10;100421.16;5005122;28;20084;-82
2022/07/26 07:10:11;;;;;;;16.30;5.15;;;21.90;99.90;;;21.66;86.99;100424.75;5015623;28;20050;-82
2022/07/26 07:12:38;;;;;;;12.57;4.45;;;21.90;99.90;;;21.63;88.20;100428.06;5020295;28;20046;-82
2022/07/26 07:15:07;;;;;;;15.68;4.82;;;22.00;99.90;;;21.52;89.71;100427.09;5012546;28;20042;-82
2022/07/26 07:17:34;;;;;;;14.25;4.50;;;22.00;99.90;;;21.72;89.14;100432.03;5012911;28;20124;-82
2022/07/26 07:20:05;;;;;;;18.77;5.18;;;22.10;99.90;;;21.79;87.71;100435.44;5010962;28;20065;-82
2022/07/26 07:22:32;;;;;;;15.20;4.70;;;22.10;99.90;;;21.85;87.37;100428.84;5010352;28;20045;-82
2022/07/26 07:25:00;;;;;;;18.63;4.97;;;22.20;99.90;;;21.90;88.46;100430.00;5018777;28;20073;-82
2022/07/26 07:27:27;;;;;;;13.65;5.00;;;22.30;99.90;;;21.81;87.94;100437.94;4993950;28;20140;-82
2022/07/26 07:29:55;;;;;;;12.85;5.50;;;22.30;99.90;;;21.85;88.25;100439.91;5007716;28;20125;-81
2022/07/26 07:32:22;;;;;;;14.48;6.25;;;22.30;99.90;;;22.01;86.57;100445.63;5015537;28;20511;-82
2022/07/26 07:34:49;;;;;;;16.52;6.70;;;22.30;99.90;;;21.92;87.16;100447.19;5002176;28;20046;-82
2022/07/26 07:37:18;;;;;;;14.20;6.00;;;22.30;99.90;;;21.55;87.11;100450.66;5012702;28;20042;-82
2022/07/26 07:39:45;;;;;;;14.90;7.30;;;22.30;99.90;;;21.43;88.22;100454.38;5011911;28;20120;-81
2022/07/26 07:42:13;;;;;;;15.07;6.60;;;22.30;99.90;;;21.59;89.67;100455.44;5010752;28;20046;-83
2022/07/26 07:44:41;;;;;;;14.98;7.15;;;22.30;99.90;;;21.96;86.52;100451.13;5003845;28;20046;-82
2022/07/26 07:47:08;;;;;;;14.70;6.57;;;22.40;99.60;;;22.17;87.67;100447.44;5014741;28;20509;-82
2022/07/26 07:49:36;;;;;;;18.92;7.57;;;22.30;99.90;;;22.23;86.47;100456.63;5012687;28;20048;-82
2022/07/26 07:52:04;;;;;;;13.35;6.45;;;22.50;99.90;;;22.35;86.31;100457.34;5011282;28;20148;-82
2022/07/26 07:54:32;;;;;;;15.48;7.00;;;22.50;99.90;;;22.24;85.02;100464.69;5004376;28;20561;-82
2022/07/26 07:57:00;;;;;;;13.45;7.00;;;22.60;99.90;;;22.17;84.20;100460.47;5013349;28;20038;-82
2022/07/26 07:59:27;;;;;;;16.83;7.22;;;22.60;99.40;;;21.95;83.24;100460.50;5011634;28;20121;-82
2022/07/26 08:01:55;;;;;;;17.20;6.82;;;22.60;98.10;;;21.82;85.05;100459.84;5011977;28;20141;-81
2022/07/26 08:04:22;;;;;;;13.48;6.90;;;22.60;99.00;;;22.11;88.18;100462.34;5009358;28;20065;-82
2022/07/26 08:06:49;;;;;;;16.00;7.47;;;22.60;99.90;;;22.50;86.54;100456.59;5017426;28;20084;-82
2022/07/26 08:09:16;;;;;;;17.98;7.90;;;22.70;99.90;;;22.75;84.24;100455.13;5011588;28;20042;-79
2022/07/26 08:11:45;;;;;;;16.05;7.97;;;22.80;99.90;;;22.87;84.28;100455.75;5011151;28;20252;-79
2022/07/26 08:14:12;;;;;;;16.30;8.13;;;22.80;99.90;;;22.98;82.48;100457.50;5009727;28;20481;-87
2022/07/26 08:16:39;;;;;;;16.25;7.07;;;22.90;99.80;;;23.14;81.01;100463.16;5008762;28;20046;-80
2022/07/26 08:19:07;;;;;;;21.13;7.50;;;22.90;98.90;;;23.35;80.96;100459.38;4990306;28;20152;-80
2022/07/26 08:21:37;;;;;;;19.65;8.15;;;23.00;99.50;;;23.52;81.08;100461.94;5008685;28;20070;-80
2022/07/26 08:24:05;;;;;;;18.40;7.43;;;23.10;99.70;;;23.46;77.17;100451.09;5015748;28;20058;-80
2022/07/26 08:26:32;;;;;;;17.85;7.05;;;23.20;97.20;;;23.29;78.64;100454.91;5020969;28;20301;-80
2022/07/26 08:29:00;;;;;;;15.07;7.50;;;23.20;97.70;;;23.00;78.31;100452.50;4999717;28;20042;-80
2022/07/26 08:31:28;;;;;;;14.80;7.32;;;23.20;96.40;;;22.87;80.57;100461.31;5009913;28;20041;-78
2022/07/26 08:33:56;;;;;;;14.63;6.75;;;23.10;97.50;;;23.08;82.06;100462.28;5010670;28;20116;-76
2022/07/26 08:36:24;;;;;;;18.92;7.07;;;23.20;99.30;;;23.22;80.09;100452.34;5010934;28;20550;-77
2022/07/26 08:38:51;;;;;;;14.02;5.82;;;23.20;98.10;;;23.25;78.03;100453.78;5008055;28;20149;-79
2022/07/26 08:41:18;;;;;;;11.18;5.50;;;23.30;96.70;;;23.01;76.72;100456.94;5009208;28;20042;-77
2022/07/26 08:43:46;;;;;;;18.65;5.45;;;23.20;94.70;;;22.78;78.44;100452.63;5007436;28;20099;-81
2022/07/26 08:46:15;;;;;;;10.70;4.75;;;23.20;95.70;;;22.47;79.43;100456.31;5011407;28;20113;-78
2022/07/26 08:48:42;;;;;;;11.35;4.90;;;23.20;95.50;;;22.32;80.72;100462.56;5009228;28;20046;-79
2022/07/26 08:51:11;;;;;;;24.08;5.13;;;23.10;95.60;;;22.26;81.22;100467.22;5009458;28;20042;-79
2022/07/26 08:53:39;;;;;;;11.05;4.70;;;23.10;95.80;;;21.98;81.92;100471.09;5011239;28;20073;-80
2022/07/26 08:56:07;;;;;;;11.80;4.70;;;23.00;95.70;;;21.63;83.71;100478.75;5013392;28;20045;-81
2022/07/26 08:58:36;;;;;;;12.02;5.13;;;23.00;96.10;;;21.40;85.24;100473.44;5008852;28;20070;-77
2022/07/26 09:01:08;;;;;;;13.25;5.18;;;23.00;96.50;;;21.22;84.47;100474.59;5004569;28;20065;-78
2022/07/26 09:03:37;;;;;;;18.17;4.47;;;22.90;95.40;;;21.20;85.86;100474.03;4985348;28;20144;-79
2022/07/26 09:06:20;;;;;;;12.60;4.60;;;22.80;96.10;;;21.29;86.99;100475.25;4995037;28;20116;-78
2022/07/26 09:08:49;;;;;;;10.77;4.13;;;22.80;96.70;;;21.37;86.26;100479.50;5005932;28;20447;-79
2022/07/26 09:11:31;;;;;;;14.07;4.30;;;22.80;96.80;;;21.45;84.48;100479.06;5010781;28;20137;-78
2022/07/26 09:14:02;;;;;;;11.52;4.03;;;22.80;96.20;;;21.69;84.79;100479.66;5008114;28;21568;-78
2022/07/26 09:16:30;;;;;;;9.45;3.53;;;22.80;96.60;;;22.19;85.22;100478.50;5003222;28;20053;-79
2022/07/26 09:19:16;;;;;;;12.35;3.83;;;22.90;98.70;;;22.33;81.12;100473.41;5010241;28;20080;-78
2022/07/26 09:21:45;;;;;;;9.48;3.60;;;22.90;96.40;;;22.14;81.35;100485.91;5007640;28;20414;-78
2022/07/26 09:24:13;;;;;;;18.75;6.20;;;22.80;95.90;;;21.50;90.62;100497.72;5009229;28;20061;-79
2022/07/26 09:26:40;;;;;;;16.50;5.85;;;22.80;99.10;;;20.83;97.55;100494.00;5036898;28;20041;-79
2022/07/26 09:29:11;;;;;;;16.02;5.63;;;22.70;99.90;;;20.37;100.00;100495.94;5008507;28;20042;-79
2022/07/26 09:31:40;;;;;;;12.13;5.03;;;22.70;99.90;;;20.18;100.00;100495.34;4989057;28;21344;-79
2022/07/26 09:34:09;;;;;;;10.93;5.50;;;22.60;99.90;;;20.10;100.00;100502.13;5009970;28;20137;-78
2022/07/26 09:36:50;;;;;;;11.40;5.75;;;22.50;99.90;;;20.27;100.00;100497.44;5009372;28;20483;-80
2022/07/26 09:39:21;;;;;;;13.82;6.25;;;22.50;99.90;;;20.74;100.00;100495.50;5011150;28;20044;-80
2022/07/26 09:41:49;;;;;;;12.77;7.18;;;22.50;99.90;;;21.19;100.00;100491.72;4988003;28;20053;-80
2022/07/26 09:44:24;;;;;;;15.65;7.47;;;22.50;99.90;;;21.38;100.00;100493.09;5007980;28;20069;-78
2022/07/26 09:46:55;;;;;;;14.48;8.55;;;22.60;99.90;;;21.68;100.00;100489.03;5010091;28;20065;-78
2022/07/26 09:49:26;;;;;;;14.63;8.93;;;22.60;99.90;;;21.92;100.00;100488.78;5006921;28;20050;-78
2022/07/26 09:51:54;;;;;;;15.68;8.55;;;22.70;99.90;;;21.77;100.00;100497.75;5009076;28;20300;-78
2022/07/26 09:54:34;;;;;;;14.50;8.63;;;22.70;99.90;;;21.66;100.00;100494.00;4984856;28;20046;-79
2022/07/26 09:57:03;;;;;;;14.13;9.15;;;22.70;99.90;;;21.86;100.00;100487.88;5005397;28;20052;-78
2022/07/26 09:59:31;;;;;;;13.02;8.30;;;22.70;99.90;;;22.19;100.00;100488.75;5012650;28;20041;-78
2022/07/26 10:02:01;;;;;;;15.35;7.82;;;22.80;99.90;;;22.39;100.00;100479.81;5008384;28;20042;-78
2022/07/26 10:04:30;;;;;;;13.68;7.13;;;22.80;99.90;;;22.52;98.26;100482.13;5006540;28;20038;-79
2022/07/26 10:06:57;;;;;;;13.35;7.03;;;22.90;99.90;;;22.69;100.00;100483.94;4994646;28;20073;-83
2022/07/26 10:09:30;;;;;;;11.02;7.25;;;22.90;99.90;;;22.77;95.97;100483.41;4992989;28;20042;-80
2022/07/26 10:12:03;;;;;;;14.18;6.53;;;23.00;99.90;;;22.70;91.42;100494.75;5008273;28;20050;-80
2022/07/26 10:14:40;;;;;;;12.80;6.78;;;23.00;99.90;;;22.54;89.07;100496.59;4991325;28;20068;-80